Time;durP1;ratioP1;P1;durP2;ratioP2;P2;SDS_P1;SDS_P2;PMS_P1;PMS_P2;Temp;Humidity;BMP_temperature;BMP_pressure;BME280_temperature;BME280_humidity;BME280_pressure;Samples;Min_cycle;Max_cycle;Signal;HPM_P1;HPM_P2
2023/07/14 00:00:41;;;;;;;6.88;4.15;;;18.50;99.90;;;;;;4977101;28;20381;-79
2023/07/14 00:03:11;;;;;;;8.65;4.20;;;18.50;99.90;;;;;;4975765;28;20049;-80
2023/07/14 00:05:39;;;;;;;8.27;3.85;;;18.40;99.90;;;;;;4983849;28;20395;-80
2023/07/14 00:08:13;;;;;;;8.25;4.53;;;18.30;99.90;;;;;;4983845;28;20022;-80
2023/07/14 00:10:39;;;;;;;11.43;4.80;;;18.20;99.90;;;;;;4966051;28;20034;-80
2023/07/14 00:13:09;;;;;;;8.10;4.55;;;18.20;99.90;;;;;;4986335;28;20030;-80
2023/07/14 00:15:39;;;;;;;8.25;4.75;;;18.10;99.90;;;;;;4973122;28;20026;-81
2023/07/14 00:18:16;;;;;;;13.18;6.22;;;18.00;99.90;;;;;;4983782;28;20026;-80
2023/07/14 00:20:41;;;;;;;10.80;5.45;;;18.00;99.90;;;;;;4983970;28;20038;-80
2023/07/14 00:23:15;;;;;;;8.15;5.50;;;17.90;99.90;;;;;;4984058;28;20403;-80
2023/07/14 00:25:41;;;;;;;9.85;5.05;;;18.00;99.90;;;;;;4983884;28;20030;-80
2023/07/14 00:28:17;;;;;;;12.73;5.57;;;18.00;99.90;;;;;;4982729;28;20077;-80
2023/07/14 00:30:43;;;;;;;9.90;5.78;;;18.00;99.90;;;;;;4984103;28;20069;-80
2023/07/14 00:33:16;;;;;;;8.50;5.80;;;18.00;99.90;;;;;;4986338;28;20022;-80
2023/07/14 00:35:42;;;;;;;8.88;5.70;;;18.00;99.90;;;;;;4995100;28;20073;-80
2023/07/14 00:38:09;;;;;;;11.15;5.70;;;18.00;99.90;;;;;;4983572;28;20022;-80
2023/07/14 00:40:43;;;;;;;8.65;5.95;;;18.00;99.90;;;;;;5007055;28;20073;-80
2023/07/14 00:43:21;;;;;;;13.05;6.03;;;18.00;99.90;;;;;;5003562;28;20026;-80
2023/07/14 00:45:49;;;;;;;13.45;5.63;;;18.00;99.90;;;;;;4997635;28;20805;-80
2023/07/14 00:48:19;;;;;;;9.55;5.85;;;18.00;99.90;;;;;;4983648;28;20022;-81
2023/07/14 00:50:57;;;;;;;9.25;5.57;;;17.90;99.90;;;;;;4963509;28;20747;-78
2023/07/14 00:53:39;;;;;;;10.02;5.57;;;17.90;99.90;;;;;;4982987;28;20258;-80
2023/07/14 00:56:12;;;;;;;12.55;5.85;;;17.80;99.90;;;;;;4983240;28;20023;-79
2023/07/14 00:58:42;;;;;;;7.78;6.05;;;17.80;99.90;;;;;;4967497;28;20101;-80
2023/07/14 01:01:11;;;;;;;10.00;5.97;;;17.80;99.90;;;;;;5008658;28;20266;-80
2023/07/14 01:03:42;;;;;;;9.50;5.90;;;17.80;99.90;;;;;;4998394;28;20505;-79
2023/07/14 01:06:15;;;;;;;12.05;6.07;;;17.70;99.90;;;;;;4986688;28;20359;-79
2023/07/14 01:08:53;;;;;;;6.82;5.57;;;17.70;99.90;;;;;;4972125;28;20027;-80
2023/07/14 01:11:31;;;;;;;16.30;6.78;;;17.70;99.90;;;;;;4967314;28;20022;-79
2023/07/14 01:14:00;;;;;;;12.73;7.45;;;17.60;99.90;;;;;;4982600;28;20535;-79
2023/07/14 01:16:28;;;;;;;10.52;6.88;;;17.60;99.90;;;;;;4960204;28;20034;-79
2023/07/14 01:18:56;;;;;;;9.70;7.03;;;17.60;99.90;;;;;;4981769;28;20587;-80
2023/07/14 01:21:27;;;;;;;10.27;7.55;;;17.60;99.90;;;;;;4983693;28;20418;-80
2023/07/14 01:24:07;;;;;;;18.67;7.93;;;17.60;99.90;;;;;;4981852;28;20636;-81
2023/07/14 01:26:56;;;;;;;15.07;8.32;;;17.60;99.90;;;;;;4983944;28;20402;-80
2023/07/14 01:29:22;;;;;;;12.63;8.35;;;17.50;99.90;;;;;;4984336;28;20037;-80
2023/07/14 01:31:51;;;;;;;14.80;8.32;;;17.50;99.90;;;;;;4984690;28;20060;-80
2023/07/14 01:34:17;;;;;;;9.88;8.05;;;17.50;99.90;;;;;;4982488;28;20060;-81
2023/07/14 01:36:44;;;;;;;13.90;8.68;;;17.50;99.90;;;;;;4982111;28;20027;-80
2023/07/14 01:39:11;;;;;;;15.70;8.10;;;17.50;99.90;;;;;;4972896;28;20077;-80
2023/07/14 01:41:37;;;;;;;13.30;8.05;;;17.50;99.90;;;;;;4982635;28;20022;-81
2023/07/14 01:44:05;;;;;;;14.40;8.43;;;17.50;99.90;;;;;;4968335;28;20425;-80
2023/07/14 01:46:31;;;;;;;11.75;7.60;;;17.50;99.90;;;;;;4987988;28;20022;-80
2023/07/14 01:48:57;;;;;;;11.98;7.45;;;17.50;99.90;;;;;;4966490;28;20109;-80
2023/07/14 01:51:24;;;;;;;11.75;8.10;;;17.50;99.90;;;;;;4984100;28;20600;-80
2023/07/14 01:54:12;;;;;;;11.32;8.27;;;17.50;99.90;;;;;;4984412;28;20042;-80
2023/07/14 01:56:39;;;;;;;13.13;8.00;;;17.30;99.90;;;;;;4980398;28;20025;-80
2023/07/14 01:59:19;;;;;;;14.18;8.65;;;17.20;99.90;;;;;;4983207;28;20042;-80
2023/07/14 02:01:45;;;;;;;15.77;9.18;;;17.20;99.90;;;;;;4982227;28;20110;-80
2023/07/14 02:04:22;;;;;;;19.00;9.73;;;17.20;99.90;;;;;;4972067;28;20434;-79
2023/07/14 02:06:48;;;;;;;18.67;8.63;;;17.20;99.90;;;;;;4981262;28;20026;-80
2023/07/14 02:09:21;;;;;;;15.25;9.05;;;17.10;99.90;;;;;;4961800;28;20400;-80
2023/07/14 02:11:51;;;;;;;18.83;9.18;;;17.10;99.90;;;;;;4981280;28;20022;-80
2023/07/14 02:14:20;;;;;;;16.08;8.77;;;17.00;99.90;;;;;;4980903;28;20104;-80
2023/07/14 02:16:47;;;;;;;14.55;9.77;;;16.90;99.90;;;;;;4982545;28;20037;-81
2023/07/14 02:19:19;;;;;;;15.45;9.60;;;16.90;99.90;;;;;;4963759;28;20034;-80
2023/07/14 02:21:48;;;;;;;17.83;9.90;;;16.90;99.90;;;;;;4982818;28;20026;-80
2023/07/14 02:24:24;;;;;;;16.83;9.93;;;16.80;99.90;;;;;;4982178;28;20070;-80
2023/07/14 02:26:58;;;;;;;13.35;10.18;;;16.80;99.90;;;;;;4963609;28;20034;-80
2023/07/14 02:29:24;;;;;;;16.38;10.25;;;16.80;99.90;;;;;;4963355;28;20037;-80
2023/07/14 02:32:03;;;;;;;17.23;10.52;;;16.70;99.90;;;;;;4982343;28;20371;-79
2023/07/14 02:34:33;;;;;;;12.25;10.32;;;16.70;99.90;;;;;;4957942;28;20142;-80
2023/07/14 02:37:39;;;;;;;19.27;10.60;;;16.70;99.90;;;;;;4980845;28;20238;-80
2023/07/14 02:40:07;;;;;;;14.80;10.48;;;16.70;99.90;;;;;;4964395;28;20058;-79
2023/07/14 02:42:41;;;;;;;15.10;10.70;;;16.70;99.90;;;;;;4978734;28;20050;-80
2023/07/14 02:45:07;;;;;;;16.42;10.50;;;16.70;99.90;;;;;;4979351;28;20117;-80
2023/07/14 02:47:37;;;;;;;16.95;10.15;;;16.70;99.90;;;;;;4963016;28;20061;-80
2023/07/14 02:50:03;;;;;;;14.43;10.38;;;16.80;99.90;;;;;;4978497;28;20502;-80
2023/07/14 02:52:29;;;;;;;13.27;9.82;;;16.80;99.90;;;;;;4979884;28;20387;-80
2023/07/14 02:54:56;;;;;;;13.65;9.68;;;16.80;99.90;;;;;;4982278;28;20242;-80
2023/07/14 02:57:22;;;;;;;15.77;9.95;;;16.80;99.90;;;;;;4973823;28;20042;-80
2023/07/14 02:59:47;;;;;;;16.38;10.68;;;16.80;99.90;;;;;;4967014;28;20029;-81
2023/07/14 03:02:13;;;;;;;20.17;10.27;;;16.80;99.90;;;;;;4983642;28;20046;-81
2023/07/14 03:04:41;;;;;;;15.68;10.40;;;16.80;99.90;;;;;;4987695;28;20542;-80
2023/07/14 03:07:07;;;;;;;20.25;9.82;;;16.80;99.90;;;;;;5001312;28;20019;-80
2023/07/14 03:09:32;;;;;;;16.27;10.38;;;16.90;99.90;;;;;;4974045;28;20121;-79
2023/07/14 03:11:58;;;;;;;13.20;9.43;;;16.80;99.90;;;;;;4987186;28;20038;-80
2023/07/14 03:14:24;;;;;;;17.80;10.27;;;16.80;99.90;;;;;;4967987;28;20367;-80
2023/07/14 03:16:49;;;;;;;16.38;10.52;;;16.80;99.90;;;;;;4974833;28;20065;-80
2023/07/14 03:19:17;;;;;;;19.33;10.25;;;16.70;99.90;;;;;;4970237;28;20030;-80
2023/07/14 03:21:42;;;;;;;15.57;9.95;;;16.60;99.90;;;;;;4976182;28;20022;-80
2023/07/14 03:24:08;;;;;;;16.95;9.85;;;16.60;99.90;;;;;;4986045;28;20077;-80
2023/07/14 03:26:34;;;;;;;16.65;11.27;;;16.60;99.90;;;;;;4985037;28;20025;-80
2023/07/14 03:28:59;;;;;;;15.13;11.25;;;16.60;99.90;;;;;;4987403;28;20426;-79
2023/07/14 03:31:25;;;;;;;16.55;10.70;;;16.60;99.90;;;;;;4984963;28;20120;-80
2023/07/14 03:33:50;;;;;;;11.13;9.30;;;16.50;99.90;;;;;;4984472;28;20053;-80
2023/07/14 03:36:20;;;;;;;14.05;10.27;;;16.50;99.90;;;;;;4986474;28;20561;-81
2023/07/14 03:38:46;;;;;;;13.32;10.80;;;16.50;99.90;;;;;;4986534;28;20025;-80
2023/07/14 03:41:14;;;;;;;17.52;10.45;;;16.50;99.90;;;;;;4987876;28;20471;-80
2023/07/14 03:43:40;;;;;;;18.88;11.27;;;16.60;99.90;;;;;;4973966;28;20026;-80
2023/07/14 03:46:07;;;;;;;15.15;10.00;;;16.60;99.90;;;;;;4982570;28;20026;-80
2023/07/14 03:48:33;;;;;;;17.95;11.40;;;16.60;99.90;;;;;;4983212;28;20022;-80
2023/07/14 03:51:05;;;;;;;15.55;10.02;;;16.60;99.90;;;;;;4967956;28;20026;-80
2023/07/14 03:53:31;;;;;;;18.88;10.13;;;16.60;99.90;;;;;;4960151;28;20034;-80
2023/07/14 03:55:57;;;;;;;14.88;10.07;;;16.70;99.90;;;;;;4977873;28;20034;-80
2023/07/14 03:58:23;;;;;;;15.57;10.32;;;16.70;99.90;;;;;;4970075;28;20169;-80
2023/07/14 04:00:49;;;;;;;15.45;10.43;;;16.80;99.90;;;;;;4984796;28;20718;-80
2023/07/14 04:03:16;;;;;;;14.80;9.95;;;16.80;99.90;;;;;;4981923;28;20050;-80
2023/07/14 04:05:46;;;;;;;12.82;10.07;;;16.90;99.90;;;;;;4986690;28;20034;-80
2023/07/14 04:08:12;;;;;;;14.65;9.30;;;16.90;99.90;;;;;;4979228;28;20090;-80
2023/07/14 04:10:38;;;;;;;10.55;9.15;;;17.00;99.90;;;;;;4963047;28;20118;-81
2023/07/14 04:13:03;;;;;;;13.45;10.07;;;17.00;99.90;;;;;;4969419;28;20037;-80
2023/07/14 04:15:29;;;;;;;15.85;9.30;;;17.00;99.90;;;;;;4983425;28;20475;-80
2023/07/14 04:17:54;;;;;;;15.45;10.02;;;17.00;99.90;;;;;;4986067;28;20038;-80
2023/07/14 04:20:20;;;;;;;17.25;10.07;;;17.10;99.90;;;;;;4986492;28;20121;-80
2023/07/14 04:22:45;;;;;;;11.25;9.00;;;17.10;99.90;;;;;;4985092;28;20037;-80
2023/07/14 04:25:11;;;;;;;14.73;9.77;;;17.10;99.90;;;;;;4986526;28;20086;-80
2023/07/14 04:27:37;;;;;;;14.60;10.00;;;17.20;99.90;;;;;;4985688;28;20061;-80
2023/07/14 04:30:04;;;;;;;12.65;9.57;;;17.20;99.90;;;;;;4985465;28;20030;-80
2023/07/14 04:32:32;;;;;;;14.90;10.40;;;17.30;99.90;;;;;;4967173;28;20121;-80
2023/07/14 04:34:57;;;;;;;14.02;10.07;;;17.30;99.90;;;;;;4983897;28;20026;-80
2023/07/14 04:37:25;;;;;;;16.00;8.75;;;17.30;99.90;;;;;;4986551;28;20045;-79
2023/07/14 04:39:53;;;;;;;15.85;9.98;;;17.40;99.90;;;;;;4967793;28;20034;-79
2023/07/14 04:42:19;;;;;;;14.75;9.35;;;17.40;99.90;;;;;;4965215;28;20582;-79
2023/07/14 04:44:44;;;;;;;19.02;9.07;;;17.50;99.90;;;;;;4977184;28;20034;-79
2023/07/14 04:47:10;;;;;;;26.60;9.48;;;17.50;99.90;;;;;;4983019;28;20030;-79
2023/07/14 04:49:36;;;;;;;16.77;9.55;;;17.50;99.90;;;;;;4985721;28;20030;-79
2023/07/14 04:52:02;;;;;;;17.17;9.10;;;17.60;99.90;;;;;;4987093;28;20572;-79
2023/07/14 04:54:28;;;;;;;17.42;9.40;;;17.70;99.90;;;;;;4967424;28;20023;-80
2023/07/14 04:56:54;;;;;;;16.42;9.23;;;17.80;99.90;;;;;;4963009;28;20080;-79
2023/07/14 04:59:20;;;;;;;24.50;8.80;;;17.80;99.90;;;;;;4985324;28;20459;-79
2023/07/14 05:01:45;;;;;;;16.88;8.82;;;17.90;99.90;;;;;;4986413;28;20030;-80
2023/07/14 05:04:11;;;;;;;18.98;8.90;;;18.00;99.90;;;;;;4986476;28;20450;-79
2023/07/14 05:06:37;;;;;;;10.98;7.47;;;18.10;99.90;;;;;;4969436;28;20430;-80
2023/07/14 05:09:02;;;;;;;17.67;8.38;;;18.10;99.90;;;;;;4987331;28;20054;-79
2023/07/14 05:11:28;;;;;;;16.13;7.32;;;18.10;99.90;;;;;;5005705;28;20034;-78
2023/07/14 05:13:54;;;;;;;14.43;7.93;;;18.10;99.90;;;;;;4996673;28;20022;-79
2023/07/14 05:16:20;;;;;;;16.38;7.88;;;18.20;99.90;;;;;;5002682;28;20041;-79
2023/07/14 05:18:46;;;;;;;12.63;7.55;;;18.20;99.90;;;;;;4987856;28;20022;-79
2023/07/14 05:21:12;;;;;;;19.20;7.93;;;18.20;99.90;;;;;;4985258;28;20506;-80
2023/07/14 05:23:38;;;;;;;11.00;7.38;;;18.30;99.90;;;;;;4969424;28;20116;-80
2023/07/14 05:26:03;;;;;;;12.43;7.22;;;18.20;99.90;;;;;;4967167;28;20029;-80
2023/07/14 05:28:29;;;;;;;17.35;8.13;;;18.20;99.90;;;;;;4986031;28;20050;-80
2023/07/14 05:30:55;;;;;;;12.70;7.30;;;18.30;99.90;;;;;;4974094;28;20061;-79
2023/07/14 05:33:21;;;;;;;19.27;7.75;;;18.40;99.90;;;;;;4976069;28;20078;-79
2023/07/14 05:35:48;;;;;;;13.45;7.70;;;18.30;99.90;;;;;;4975165;28;20010;-79
2023/07/14 05:38:14;;;;;;;15.40;7.18;;;18.30;99.90;;;;;;4983288;28;20072;-79
2023/07/14 05:40:40;;;;;;;11.80;7.95;;;18.30;99.90;;;;;;4968059;28;20039;-79
2023/07/14 05:43:05;;;;;;;18.65;7.88;;;18.40;99.90;;;;;;4983032;28;20444;-79
2023/07/14 05:45:33;;;;;;;138.27;57.05;;;18.50;99.90;;;;;;4969528;28;20108;-79
2023/07/14 05:47:59;;;;;;;18.23;8.98;;;18.50;99.90;;;;;;4974402;28;20037;-77
2023/07/14 05:50:27;;;;;;;16.38;7.63;;;18.50;99.90;;;;;;4980128;28;20018;-77
2023/07/14 05:52:55;;;;;;;17.17;7.78;;;18.50;99.90;;;;;;4982728;28;20026;-78
2023/07/14 05:55:23;;;;;;;11.70;7.90;;;18.50;99.90;;;;;;4972354;28;20177;-78
2023/07/14 05:57:49;;;;;;;9.13;7.30;;;18.60;99.90;;;;;;4980481;28;20034;-77
2023/07/14 06:00:18;;;;;;;9.57;7.05;;;18.60;99.90;;;;;;4983124;28;20045;-82
2023/07/14 06:02:46;;;;;;;15.38;8.40;;;18.80;99.90;;;;;;4982481;28;20027;-77
2023/07/14 06:05:13;;;;;;;9.77;7.68;;;18.80;99.90;;;;;;4982593;28;20049;-83
2023/07/14 06:07:40;;;;;;;14.70;8.05;;;18.70;99.90;;;;;;4963926;28;20034;-83
2023/07/14 06:10:07;;;;;;;15.32;7.90;;;18.80;99.90;;;;;;4963364;28;20034;-77
2023/07/14 06:12:33;;;;;;;14.95;7.85;;;18.80;99.90;;;;;;4980679;28;20470;-78
2023/07/14 06:14:58;;;;;;;13.57;7.90;;;18.80;99.90;;;;;;4982702;28;20022;-77
2023/07/14 06:17:27;;;;;;;14.55;8.48;;;18.90;99.90;;;;;;4979695;28;20511;-79
2023/07/14 06:19:52;;;;;;;13.43;8.20;;;19.00;99.90;;;;;;4983213;28;20426;-78
2023/07/14 06:22:20;;;;;;;107.15;48.47;;;19.00;99.90;;;;;;4983430;28;20049;-79
2023/07/14 06:24:46;;;;;;;32.05;11.05;;;19.00;99.90;;;;;;4963328;28;20033;-78
2023/07/14 06:27:14;;;;;;;16.13;8.27;;;19.00;99.90;;;;;;4980742;28;20023;-79
2023/07/14 06:29:45;;;;;;;15.65;8.77;;;19.00;99.90;;;;;;4980074;28;20026;-78
2023/07/14 06:32:11;;;;;;;10.95;7.15;;;19.10;99.90;;;;;;4982847;28;20022;-78
2023/07/14 06:34:36;;;;;;;15.13;7.07;;;19.10;99.90;;;;;;4979924;28;20499;-78
2023/07/14 06:37:02;;;;;;;11.75;7.63;;;19.10;99.90;;;;;;4973984;28;20656;-79
2023/07/14 06:39:27;;;;;;;20.33;7.65;;;19.00;99.90;;;;;;4986585;28;20176;-79
2023/07/14 06:41:53;;;;;;;9.38;7.03;;;19.20;99.90;;;;;;4984075;28;20485;-80
2023/07/14 06:44:19;;;;;;;90.25;41.75;;;19.20;99.90;;;;;;4982162;28;20081;-79
2023/07/14 06:46:45;;;;;;;18.50;8.35;;;19.20;99.90;;;;;;4978220;28;20073;-78
2023/07/14 06:49:11;;;;;;;12.85;7.07;;;19.40;99.90;;;;;;4980769;28;20022;-78
2023/07/14 06:51:38;;;;;;;16.10;7.40;;;19.30;99.90;;;;;;4982394;28;20449;-78
2023/07/14 06:54:12;;;;;;;9.32;5.05;;;19.50;99.90;;;;;;4982235;28;20029;-78
2023/07/14 06:56:38;;;;;;;11.95;6.10;;;19.30;99.90;;;;;;4979538;28;20303;-78
2023/07/14 06:59:03;;;;;;;11.18;6.20;;;19.20;99.90;;;;;;4980064;28;20061;-79
2023/07/14 07:01:29;;;;;;;8.63;5.22;;;19.40;99.90;;;;;;4973119;28;20053;-79
2023/07/14 07:03:55;;;;;;;11.93;6.57;;;19.40;99.90;;;;;;4964344;28;20549;-79
2023/07/14 07:06:20;;;;;;;9.90;4.95;;;19.60;99.90;;;;;;4982390;28;20015;-79
2023/07/14 07:08:46;;;;;;;13.95;5.32;;;19.80;99.90;;;;;;4980014;28;20438;-80
2023/07/14 07:11:15;;;;;;;14.65;4.90;;;19.60;99.90;;;;;;4961094;28;20082;-80
2023/07/14 07:13:41;;;;;;;11.20;5.05;;;19.70;99.90;;;;;;4982126;28;20048;-79
2023/07/14 07:16:07;;;;;;;10.73;4.97;;;19.70;99.90;;;;;;4962825;28;20037;-79
2023/07/14 07:18:33;;;;;;;12.30;4.78;;;19.80;99.90;;;;;;4963286;28;20261;-83
2023/07/14 07:20:59;;;;;;;8.88;4.95;;;19.70;99.90;;;;;;4978285;28;20081;-81
2023/07/14 07:23:27;;;;;;;12.52;5.10;;;19.80;99.90;;;;;;4963924;28;20038;-81
2023/07/14 07:25:55;;;;;;;11.07;5.57;;;20.00;99.90;;;;;;4982621;28;20517;-80
2023/07/14 07:28:22;;;;;;;10.93;5.22;;;20.10;99.90;;;;;;4963378;28;20034;-77
2023/07/14 07:30:47;;;;;;;10.18;5.38;;;20.20;99.90;;;;;;4961311;28;20065;-77
2023/07/14 07:33:16;;;;;;;8.05;5.13;;;20.40;99.90;;;;;;4963523;28;20031;-78
2023/07/14 07:35:42;;;;;;;9.07;4.43;;;20.40;99.90;;;;;;4977775;28;20138;-78
2023/07/14 07:38:10;;;;;;;9.15;4.90;;;20.40;99.90;;;;;;4957286;28;20030;-80
2023/07/14 07:40:47;;;;;;;10.85;4.45;;;20.60;99.90;;;;;;4963209;28;20301;-79
2023/07/14 07:43:20;;;;;;;7.60;3.95;;;20.60;99.90;;;;;;4980366;28;20463;-82
2023/07/14 07:45:48;;;;;;;12.82;4.93;;;20.70;99.90;;;;;;4981639;28;20777;-77
2023/07/14 07:48:14;;;;;;;6.25;4.45;;;20.80;99.90;;;;;;4979201;28;20057;-78
2023/07/14 07:51:23;;;;;;;8.32;5.10;;;21.00;99.90;;;;;;4972401;28;20050;-78
2023/07/14 07:53:52;;;;;;;8.60;5.07;;;20.80;99.90;;;;;;4968309;28;20026;-79
2023/07/14 07:56:18;;;;;;;8.50;4.15;;;20.90;99.90;;;;;;4974048;28;20026;-80
2023/07/14 07:58:44;;;;;;;7.50;3.58;;;21.00;99.80;;;;;;4967618;28;20123;-78
2023/07/14 08:01:22;;;;;;;15.90;6.25;;;21.00;99.80;;;;;;4979099;28;20121;-81
2023/07/14 08:03:50;;;;;;;438.23;189.52;;;21.20;99.20;;;;;;4978210;28;20109;-79
2023/07/14 08:06:21;;;;;;;9.90;4.55;;;21.40;99.10;;;;;;4960245;28;20371;-79
2023/07/14 08:08:48;;;;;;;9.93;4.10;;;21.60;99.40;;;;;;4979874;28;20109;-79
2023/07/14 08:11:21;;;;;;;9.60;3.45;;;21.70;98.70;;;;;;4979894;28;20029;-80
2023/07/14 08:13:49;;;;;;;5.88;3.85;;;21.60;97.70;;;;;;4961904;28;20310;-78
2023/07/14 08:16:17;;;;;;;5.32;3.47;;;21.60;98.00;;;;;;4977586;28;20030;-77
2023/07/14 08:18:59;;;;;;;11.43;4.25;;;21.90;97.30;;;;;;4978209;28;20389;-78
2023/07/14 08:21:29;;;;;;;10.98;4.15;;;22.10;97.50;;;;;;4982835;28;20057;-78
2023/07/14 08:24:04;;;;;;;11.20;3.42;;;22.30;97.10;;;;;;4966995;28;20036;-80
2023/07/14 08:26:33;;;;;;;9.32;4.13;;;22.20;97.00;;;;;;4962865;28;20238;-78
2023/07/14 08:29:09;;;;;;;6.47;3.90;;;22.30;96.70;;;;;;4964900;28;20489;-79
2023/07/14 08:31:37;;;;;;;8.00;3.90;;;22.30;96.20;;;;;;4982677;28;20632;-79
2023/07/14 08:34:05;;;;;;;7.95;3.90;;;22.60;96.60;;;;;;4968602;28;20029;-79
2023/07/14 08:36:31;;;;;;;229.95;109.68;;;23.00;95.90;;;;;;4986065;28;20017;-78
2023/07/14 08:38:57;;;;;;;4.28;3.50;;;23.10;94.80;;;;;;4973235;28;20072;-82
2023/07/14 08:41:46;;;;;;;10.55;4.07;;;23.00;95.20;;;;;;4964309;28;20077;-79
2023/07/14 08:44:35;;;;;;;6.43;3.58;;;23.40;94.30;;;;;;4966720;28;20066;-81
2023/07/14 08:47:21;;;;;;;8.68;3.95;;;23.30;94.50;;;;;;4986427;28;20036;-78
2023/07/14 08:49:59;;;;;;;5.05;3.88;;;23.90;94.30;;;;;;4980704;28;20026;-77
2023/07/14 08:52:39;;;;;;;7.40;3.75;;;24.80;93.10;;;;;;4980833;28;20015;-79
2023/07/14 08:55:10;;;;;;;8.63;3.80;;;25.00;90.90;;;;;;4962760;28;20177;-82
2023/07/14 08:58:02;;;;;;;6.63;3.45;;;24.90;91.20;;;;;;4979839;28;20062;-77
2023/07/14 09:00:43;;;;;;;7.60;3.70;;;24.80;91.50;;;;;;4980264;28;20043;-81
2023/07/14 09:03:21;;;;;;;9.48;3.42;;;24.60;91.60;;;;;;4983876;28;20018;-78
2023/07/14 09:05:54;;;;;;;8.13;3.63;;;25.00;91.20;;;;;;4979855;28;20034;-81
2023/07/14 09:08:29;;;;;;;6.32;3.75;;;25.10;91.00;;;;;;4980352;28;20027;-81
2023/07/14 09:11:00;;;;;;;8.20;3.65;;;25.00;90.70;;;;;;4984279;28;20406;-78
2023/07/14 09:14:03;;;;;;;5.28;3.08;;;24.80;90.40;;;;;;4982878;28;20019;-79
2023/07/14 09:16:37;;;;;;;4.95;2.95;;;24.70;90.90;;;;;;4966998;28;20156;-82
2023/07/14 09:19:02;;;;;;;6.47;2.97;;;24.60;90.40;;;;;;4983847;28;20026;-81
2023/07/14 09:21:42;;;;;;;4.57;2.92;;;24.60;90.90;;;;;;4977217;28;20436;-79
2023/07/14 09:24:27;;;;;;;4.80;3.08;;;24.70;90.10;;;;;;4966364;28;20777;-79
2023/07/14 09:26:58;;;;;;;4.82;2.70;;;24.90;89.80;;;;;;4966213;28;20046;-79
2023/07/14 09:29:36;;;;;;;5.10;2.58;;;25.30;85.70;;;;;;4975651;28;20304;-82
2023/07/14 09:32:05;;;;;;;7.32;2.95;;;25.40;85.50;;;;;;4975743;28;20085;-79
2023/07/14 09:34:40;;;;;;;5.63;2.60;;;24.70;86.20;;;;;;4959748;28;20034;-80
2023/07/14 09:37:17;;;;;;;3.97;2.50;;;24.40;86.20;;;;;;4981845;28;20053;-79
2023/07/14 09:39:45;;;;;;;5.18;2.60;;;24.40;86.50;;;;;;4975731;28;20031;-78
2023/07/14 09:42:27;;;;;;;4.90;2.22;;;24.40;87.40;;;;;;4978384;28;20057;-78
2023/07/14 09:45:00;;;;;;;3.78;2.45;;;24.40;88.00;;;;;;4976380;28;20080;-80
2023/07/14 09:47:29;;;;;;;5.45;2.53;;;24.30;87.40;;;;;;4974554;28;20251;-77
2023/07/14 09:49:59;;;;;;;3.75;2.20;;;24.20;87.00;;;;;;4974269;28;20022;-79
2023/07/14 09:52:40;;;;;;;3.78;2.72;;;24.10;88.50;;;;;;4977388;28;20041;-81
2023/07/14 09:58:31;;;;;;;5.95;2.38;;;23.70;88.20;;;;;;4996033;28;20037;-79
2023/07/14 10:00:59;;;;;;;2.88;2.50;;;24.00;87.60;;;;;;4990607;28;20045;-78
2023/07/14 10:03:30;;;;;;;4.88;2.13;;;24.20;87.50;;;;;;4983688;28;20600;-77
2023/07/14 10:06:13;;;;;;;3.90;2.33;;;24.50;86.30;;;;;;4982441;28;20026;-79
2023/07/14 10:08:54;;;;;;;4.88;2.30;;;24.80;85.90;;;;;;4979285;28;20048;-78
2023/07/14 10:11:50;;;;;;;6.75;3.00;;;25.40;86.40;;;;;;4983989;28;20076;-77
2023/07/14 10:14:26;;;;;;;7.28;2.63;;;25.90;81.00;;;;;;4983918;28;20042;-78
2023/07/14 10:16:56;;;;;;;3.20;2.13;;;26.40;83.00;;;;;;4976359;28;20098;-78
2023/07/14 10:19:31;;;;;;;4.78;2.50;;;26.40;80.90;;;;;;4976808;28;20022;-79
2023/07/14 10:21:59;;;;;;;3.35;2.63;;;26.20;79.40;;;;;;4982805;28;20018;-78
2023/07/14 10:24:27;;;;;;;2.60;2.40;;;26.20;81.20;;;;;;4981874;28;20019;-77
2023/07/14 10:27:08;;;;;;;4.30;2.33;;;25.80;79.60;;;;;;4982132;28;20182;-83
2023/07/14 10:29:47;;;;;;;3.33;2.50;;;25.60;81.20;;;;;;4979282;28;20034;-79
2023/07/14 10:32:41;;;;;;;3.97;2.35;;;25.80;80.20;;;;;;4983141;28;20026;-80
2023/07/14 10:35:28;;;;;;;2.55;2.30;;;25.60;79.10;;;;;;4980804;28;20015;-78
2023/07/14 10:38:12;;;;;;;3.78;2.10;;;26.00;78.80;;;;;;4983077;28;20413;-77
2023/07/14 10:40:46;;;;;;;5.22;2.22;;;26.20;78.60;;;;;;4980855;28;20036;-78
2023/07/14 10:43:23;;;;;;;3.40;2.55;;;26.60;76.40;;;;;;4982485;28;20430;-79
2023/07/14 10:45:56;;;;;;;2.92;2.33;;;26.90;76.10;;;;;;4981290;28;20033;-78
2023/07/14 10:48:38;;;;;;;3.70;2.38;;;27.30;76.10;;;;;;4976200;28;20150;-79
2023/07/14 10:51:29;;;;;;;26.30;12.32;;;28.00;73.00;;;;;;4980605;28;20030;-86
2023/07/14 10:54:11;;;;;;;3.40;2.97;;;28.10;72.30;;;;;;4963386;28;20035;-82
2023/07/14 10:57:08;;;;;;;3.58;2.05;;;28.40;70.90;;;;;;4976167;28;20026;-78
2023/07/14 10:59:42;;;;;;;4.22;2.28;;;27.90;69.50;;;;;;4978396;28;20077;-82
2023/07/14 11:02:19;;;;;;;7.30;2.22;;;27.90;69.00;;;;;;4974830;28;20023;-78
2023/07/14 11:04:52;;;;;;;3.10;1.95;;;28.40;70.10;;;;;;4975255;28;20023;-79
2023/07/14 11:07:29;;;;;;;4.35;3.08;;;28.90;67.30;;;;;;4970226;28;20565;-81
2023/07/14 11:09:56;;;;;;;4.60;2.33;;;29.00;67.60;;;;;;4968446;28;20018;-85
2023/07/14 11:12:45;;;;;;;2.53;2.15;;;28.40;66.70;;;;;;4963492;28;20394;-88
2023/07/14 11:15:37;;;;;;;4.75;2.53;;;28.50;68.10;;;;;;4973446;28;20046;-88
2023/07/14 11:18:23;;;;;;;5.13;2.28;;;28.00;68.70;;;;;;4967355;28;20050;-88
2023/07/14 11:21:27;;;;;;;4.93;2.03;;;27.80;69.10;;;;;;4972319;28;20041;-89
2023/07/14 11:24:06;;;;;;;4.60;2.60;;;27.70;67.70;;;;;;4975106;28;20034;-89
2023/07/14 11:26:41;;;;;;;3.22;2.30;;;27.80;68.10;;;;;;4983184;28;20031;-87
2023/07/14 11:29:22;;;;;;;4.40;2.60;;;27.70;68.80;;;;;;4984248;28;20037;-92
2023/07/14 11:31:55;;;;;;;2.45;2.20;;;27.50;68.90;;;;;;4976481;28;20528;-86
2023/07/14 11:34:38;;;;;;;2.83;2.10;;;26.90;69.10;;;;;;4966438;28;20027;-90
2023/07/14 11:37:23;;;;;;;3.85;2.08;;;26.80;68.60;;;;;;4978830;28;20077;-84
2023/07/14 11:40:00;;;;;;;3.35;2.50;;;26.80;69.30;;;;;;4978713;28;20501;-85
2023/07/14 11:42:30;;;;;;;4.47;2.30;;;27.10;68.40;;;;;;4978584;28;20031;-85
2023/07/14 11:45:00;;;;;;;2.78;2.33;;;27.10;69.40;;;;;;4966703;28;20023;-91
2023/07/14 11:47:41;;;;;;;2.47;2.28;;;27.00;69.00;;;;;;4956807;28;20030;-80
2023/07/14 11:50:16;;;;;;;8.18;4.63;;;27.00;69.10;;;;;;4957596;28;20413;-80
2023/07/14 11:53:05;;;;;;;2.28;2.08;;;26.90;68.20;;;;;;4979710;28;20018;-83
2023/07/14 11:55:33;;;;;;;3.45;2.70;;;27.00;69.70;;;;;;4957628;28;20459;-80
2023/07/14 11:58:30;;;;;;;6.80;2.63;;;27.60;68.90;;;;;;4964739;28;20410;-82
2023/07/14 12:01:13;;;;;;;3.67;2.50;;;28.90;72.30;;;;;;4957474;28;20041;-84
2023/07/14 12:03:40;;;;;;;2.47;2.28;;;29.30;63.30;;;;;;4956981;28;20065;-85
2023/07/14 12:06:18;;;;;;;7.43;2.30;;;28.90;62.70;;;;;;4968872;28;20038;-83
2023/07/14 12:08:59;;;;;;;6.03;2.67;;;28.60;63.20;;;;;;4961945;28;20441;-83
2023/07/14 12:11:27;;;;;;;6.35;2.45;;;29.00;64.90;;;;;;4966842;28;20386;-86
2023/07/14 12:13:53;;;;;;;2.55;2.35;;;29.30;63.20;;;;;;4985538;28;20420;-82
2023/07/14 12:16:27;;;;;;;2.70;2.40;;;29.00;63.50;;;;;;4966572;28;20041;-85
2023/07/14 12:19:21;;;;;;;2.83;2.55;;;28.40;64.80;;;;;;4975813;28;20018;-84
2023/07/14 12:21:56;;;;;;;3.60;2.63;;;28.20;65.00;;;;;;4965409;28;20502;-86
2023/07/14 12:24:28;;;;;;;10.05;2.50;;;27.90;65.80;;;;;;4975692;28;20095;-81
2023/07/14 12:27:24;;;;;;;3.07;2.80;;;28.00;68.40;;;;;;4978388;28;20049;-86
2023/07/14 12:30:00;;;;;;;5.07;2.70;;;28.20;65.20;;;;;;4969959;28;20045;-86
2023/07/14 12:32:33;;;;;;;3.05;2.58;;;28.40;64.40;;;;;;5003256;28;20019;-86
2023/07/14 12:34:59;;;;;;;6.63;2.47;;;28.80;65.70;;;;;;4975507;28;20272;-86
2023/07/14 12:37:25;;;;;;;4.50;2.10;;;28.70;63.20;;;;;;4974643;28;20565;-82
2023/07/14 12:39:53;;;;;;;4.43;2.70;;;28.60;64.60;;;;;;4965742;28;20130;-81
2023/07/14 12:42:20;;;;;;;4.68;2.40;;;28.60;66.00;;;;;;4975204;28;20106;-82
2023/07/14 12:44:47;;;;;;;5.32;2.92;;;28.70;64.90;;;;;;4976833;28;20030;-83
2023/07/14 12:47:17;;;;;;;5.10;2.78;;;28.70;64.10;;;;;;4957288;28;20062;-86
2023/07/14 12:49:49;;;;;;;6.57;2.33;;;28.60;63.30;;;;;;4977369;28;20033;-87
2023/07/14 12:52:25;;;;;;;2.67;2.30;;;29.10;63.70;;;;;;4969872;28;20426;-88
2023/07/14 12:54:52;;;;;;;5.18;2.80;;;29.30;63.20;;;;;;4966905;28;20031;-90
2023/07/14 12:57:21;;;;;;;4.40;2.75;;;29.30;62.10;;;;;;4975950;28;20127;-88
2023/07/14 12:59:51;;;;;;;208.07;103.45;;;29.30;61.50;;;;;;4976873;28;20030;-90
2023/07/14 13:02:19;;;;;;;18.00;7.53;;;29.30;60.40;;;;;;4971332;28;20122;-91
2023/07/14 13:04:46;;;;;;;6.93;3.30;;;29.10;61.00;;;;;;4973847;28;20034;-92